createdAt,value
2024-02-26T00:00:42.086Z,98008.55
2024-02-26T00:03:48.908Z,98012.73
2024-02-26T00:06:56.128Z,98013.86
2024-02-26T00:10:02.380Z,98010.71
2024-02-26T00:13:06.957Z,98009.41
2024-02-26T00:16:13.217Z,98011.77
2024-02-26T00:19:19.479Z,98011.27
2024-02-26T00:22:25.784Z,98010.45
2024-02-26T00:25:30.286Z,98005.33
2024-02-26T00:28:36.472Z,98000.33
2024-02-26T00:31:41.221Z,97997.28
2024-02-26T00:34:47.430Z,97992.10
2024-02-26T00:37:52.074Z,97990.64
2024-02-26T00:40:58.296Z,97992.44
2024-02-26T00:44:02.773Z,97992.14
2024-02-26T00:47:09.259Z,97992.69
2024-02-26T00:50:15.648Z,97987.07
2024-02-26T00:53:21.734Z,97982.55
2024-02-26T00:56:27.927Z,97978.59
2024-02-26T00:59:32.508Z,97978.71
2024-02-26T01:02:39.718Z,97980.23
2024-02-26T01:05:46.335Z,97979.52
2024-02-26T01:08:52.787Z,97976.94
2024-02-26T01:11:59.053Z,97977.73
2024-02-26T01:15:05.830Z,97974.06
2024-02-26T01:18:12.632Z,97970.86
2024-02-26T01:21:19.008Z,97966.30
2024-02-26T01:24:25.143Z,97966.55
2024-02-26T01:27:31.311Z,97965.73
2024-02-26T01:30:36.048Z,97966.19
2024-02-26T01:33:42.221Z,97967.95
2024-02-26T01:36:48.883Z,97970.34
2024-02-26T01:39:55.075Z,97974.62
2024-02-26T01:42:59.523Z,97978.84
2024-02-26T01:46:06.417Z,97977.07
2024-02-26T01:49:14.842Z,97975.04
2024-02-26T01:52:22.858Z,97972.83
2024-02-26T01:55:30.368Z,97970.69
2024-02-26T01:58:38.480Z,97968.20
2024-02-26T02:01:47.453Z,97967.81
2024-02-26T02:04:53.942Z,97966.11
2024-02-26T02:08:01.185Z,97972.89
2024-02-26T02:11:08.915Z,97974.08
2024-02-26T02:14:15.161Z,97977.45
2024-02-26T02:17:19.713Z,97978.30
2024-02-26T02:20:34.432Z,97987.55
2024-02-26T02:23:40.611Z,97983.98
2024-02-26T02:26:45.192Z,97977.11
2024-02-26T02:29:52.078Z,97974.06
2024-02-26T02:33:00.381Z,97976.13
2024-02-26T02:36:11.480Z,97981.05
2024-02-26T02:39:17.910Z,97982.57
2024-02-26T02:42:24.120Z,97984.86
2024-02-26T02:45:28.590Z,97984.70
2024-02-26T02:48:34.834Z,97984.46
2024-02-26T02:51:40.967Z,97985.33
2024-02-26T02:54:48.310Z,97987.92
2024-02-26T02:57:54.394Z,97997.65
2024-02-26T03:01:02.107Z,97999.68
2024-02-26T03:04:08.858Z,97998.38
2024-02-26T03:07:15.028Z,97999.51
2024-02-26T03:10:19.521Z,97997.05
2024-02-26T03:13:25.740Z,97990.55
2024-02-26T03:16:30.482Z,97983.23
2024-02-26T03:19:36.649Z,97988.02
2024-02-26T03:22:42.414Z,97987.02
2024-02-26T03:25:49.450Z,97994.25
2024-02-26T03:28:55.652Z,97998.25
2024-02-26T03:32:00.194Z,97992.05
2024-02-26T03:35:08.671Z,97990.55
2024-02-26T03:38:15.401Z,97986.36
2024-02-26T03:41:21.529Z,97983.22
2024-02-26T03:44:27.654Z,97980.73
2024-02-26T03:47:33.791Z,97975.13
2024-02-26T03:50:40.046Z,97972.22
2024-02-26T03:53:44.611Z,97975.61
2024-02-26T03:56:50.937Z,97981.14
2024-02-26T03:59:55.598Z,97981.36
2024-02-26T04:03:02.388Z,97977.35
2024-02-26T04:06:10.694Z,97971.73
2024-02-26T04:09:17.783Z,97969.38
2024-02-26T04:12:24.180Z,97969.20
2024-02-26T04:15:30.576Z,97969.48
2024-02-26T04:18:36.968Z,97966.95
2024-02-26T04:21:45.113Z,97964.36
2024-02-26T04:24:51.256Z,97965.35
2024-02-26T04:27:57.382Z,97967.08
2024-02-26T04:31:03.434Z,97965.14
2024-02-26T04:34:11.486Z,97961.30
2024-02-26T04:37:19.159Z,97952.61
2024-02-26T04:40:25.186Z,97948.11
2024-02-26T04:43:31.274Z,97948.84
2024-02-26T04:46:37.366Z,97946.32
2024-02-26T04:49:43.471Z,97946.80
2024-02-26T04:52:49.573Z,97945.05
2024-02-26T04:55:55.869Z,97942.45
2024-02-26T04:59:00.441Z,97938.30
2024-02-26T05:02:07.085Z,97937.29
2024-02-26T05:05:14.061Z,97943.05
2024-02-26T05:08:20.394Z,97945.23
2024-02-26T05:11:27.041Z,97945.30
2024-02-26T05:14:33.252Z,97948.35
2024-02-26T05:17:39.363Z,97943.42
2024-02-26T05:20:45.615Z,97943.68
2024-02-26T05:23:51.851Z,97938.80
2024-02-26T05:26:56.897Z,97936.20
2024-02-26T05:30:03.142Z,97942.42
2024-02-26T05:33:07.943Z,97943.69
2024-02-26T05:36:20.054Z,97942.11
2024-02-26T05:39:26.455Z,97951.11
2024-02-26T05:42:31.295Z,97948.92
2024-02-26T05:45:37.609Z,97946.47
2024-02-26T05:48:43.907Z,97954.06
2024-02-26T05:51:48.382Z,97943.17
2024-02-26T05:54:54.533Z,97959.87
2024-02-26T05:58:00.724Z,97954.82
2024-02-26T06:01:05.350Z,97963.07
2024-02-26T06:04:13.055Z,97963.92
2024-02-26T06:07:19.136Z,97948.98
2024-02-26T06:10:25.442Z,97956.04
2024-02-26T06:13:32.534Z,97954.36
2024-02-26T06:16:38.758Z,97958.96
2024-02-26T06:19:44.927Z,97963.45
2024-02-26T06:22:49.498Z,97959.64
2024-02-26T06:25:55.710Z,97962.34
2024-02-26T06:29:01.840Z,97962.33
2024-02-26T06:32:09.154Z,97960.95
2024-02-26T06:35:15.420Z,97961.66
2024-02-26T06:38:19.911Z,97966.17
2024-02-26T06:41:28.876Z,97976.80
2024-02-26T06:44:35.014Z,97981.63
2024-02-26T06:47:41.374Z,97982.70
2024-02-26T06:50:47.734Z,97988.93
2024-02-26T06:53:53.904Z,97985.11
2024-02-26T06:57:00.214Z,97989.66
2024-02-26T07:00:07.518Z,97996.56
2024-02-26T07:03:15.420Z,97995.77
2024-02-26T07:06:21.742Z,98002.36
2024-02-26T07:09:26.529Z,98003.80
2024-02-26T07:12:32.761Z,98003.10
2024-02-26T07:15:37.385Z,98002.77
2024-02-26T07:18:44.508Z,98000.77
2024-02-26T07:21:50.855Z,97993.80
2024-02-26T07:24:56.917Z,97993.75
2024-02-26T07:28:02.984Z,97994.98
2024-02-26T07:31:09.320Z,97995.73
2024-02-26T07:34:15.800Z,97998.27
2024-02-26T07:37:21.879Z,97997.80
2024-02-26T07:40:28.121Z,97993.44
2024-02-26T07:43:32.629Z,97995.35
2024-02-26T07:46:38.803Z,97997.80
2024-02-26T07:49:45.495Z,97996.61
2024-02-26T07:52:52.517Z,97995.51
2024-02-26T07:55:58.733Z,97992.98
2024-02-26T07:59:04.818Z,97992.89
2024-02-26T08:02:11.004Z,97993.75
2024-02-26T08:05:17.336Z,97989.54
2024-02-26T08:08:21.748Z,97988.71
2024-02-26T08:11:28.007Z,97987.02
2024-02-26T08:14:33.992Z,97981.73
2024-02-26T08:17:38.646Z,97977.69
2024-02-26T08:20:44.979Z,97986.73
2024-02-26T08:23:49.574Z,97986.58
2024-02-26T08:26:56.003Z,97985.92
2024-02-26T08:30:03.126Z,97981.19
2024-02-26T08:33:09.547Z,97979.34
2024-02-26T08:36:14.314Z,97974.97
2024-02-26T08:39:20.725Z,97976.40
2024-02-26T08:42:26.874Z,97978.58
2024-02-26T08:45:31.580Z,97976.15
2024-02-26T08:48:37.824Z,97976.24
2024-02-26T08:51:45.156Z,97976.66
2024-02-26T08:54:51.177Z,97974.71
2024-02-26T08:57:57.295Z,97973.06
2024-02-26T09:01:03.506Z,97965.61
2024-02-26T09:04:08.145Z,97964.31
2024-02-26T09:07:14.269Z,97964.64
2024-02-26T09:10:18.901Z,97955.54
2024-02-26T09:13:25.084Z,97950.85
2024-02-26T09:16:29.552Z,97949.06
2024-02-26T09:19:35.986Z,97946.67
2024-02-26T09:22:42.235Z,97945.95
2024-02-26T09:25:47.044Z,97946.36
2024-02-26T09:28:53.229Z,97939.86
2024-02-26T09:31:57.797Z,97942.28
2024-02-26T09:35:04.809Z,97950.92
2024-02-26T09:38:11.123Z,97947.91
2024-02-26T09:41:18.938Z,97947.36
2024-02-26T09:44:26.593Z,97951.81
2024-02-26T09:47:35.647Z,97955.64
2024-02-26T09:50:43.483Z,97952.55
2024-02-26T09:53:53.716Z,97954.90
2024-02-26T09:57:04.835Z,97957.82
2024-02-26T10:00:17.141Z,97955.38
2024-02-26T10:03:27.445Z,97956.30
2024-02-26T10:06:34.106Z,97957.23
2024-02-26T10:09:40.694Z,97953.90
2024-02-26T10:12:47.031Z,97951.09
2024-02-26T10:15:53.163Z,97946.63
2024-02-26T10:18:59.905Z,97949.58
2024-02-26T10:22:07.480Z,97942.34
2024-02-26T10:25:14.186Z,97936.61
2024-02-26T10:28:20.648Z,97940.68
2024-02-26T10:31:27.124Z,97943.43
2024-02-26T10:34:33.710Z,97942.40
2024-02-26T10:37:40.001Z,97946.61
2024-02-26T10:40:46.059Z,97943.70
2024-02-26T10:43:50.582Z,97938.20
2024-02-26T10:46:57.933Z,97936.11
2024-02-26T10:50:06.082Z,97933.44
2024-02-26T10:53:19.081Z,97930.17
2024-02-26T10:56:28.290Z,97926.22
2024-02-26T10:59:37.488Z,97928.39
2024-02-26T11:02:47.175Z,97918.09
2024-02-26T11:05:54.216Z,97916.95
2024-02-26T11:09:01.747Z,97921.00
2024-02-26T11:12:12.424Z,97911.06
2024-02-26T11:15:20.666Z,97914.25
2024-02-26T11:18:29.313Z,97918.75
2024-02-26T11:21:42.376Z,97922.98
2024-02-26T11:24:49.077Z,97923.94
2024-02-26T11:27:59.213Z,97923.35
2024-02-26T11:31:08.485Z,97916.79
2024-02-26T11:34:15.556Z,97914.40
2024-02-26T11:37:22.645Z,97906.37
2024-02-26T11:40:29.849Z,97902.33
2024-02-26T11:44:01.999Z,97904.45
2024-02-26T11:47:21.014Z,97911.52
2024-02-26T11:50:41.940Z,97913.54
2024-02-26T11:53:51.233Z,97914.21
2024-02-26T11:57:00.289Z,97918.42
2024-02-26T12:00:17.966Z,97920.48
2024-02-26T12:03:25.302Z,97917.75
2024-02-26T12:06:32.324Z,97919.83
2024-02-26T12:09:40.171Z,97916.11
2024-02-26T12:12:47.459Z,97920.27
2024-02-26T12:16:01.176Z,97922.64
2024-02-26T12:19:09.485Z,97925.64
2024-02-26T12:22:17.319Z,97922.02
2024-02-26T12:25:25.041Z,97919.31
2024-02-26T12:28:33.579Z,97917.04
2024-02-26T12:31:41.261Z,97918.16
2024-02-26T12:34:48.263Z,97924.34
2024-02-26T12:37:54.861Z,97925.58
2024-02-26T12:41:01.129Z,97921.66
2024-02-26T12:44:08.258Z,97918.36
2024-02-26T12:47:17.787Z,97920.61
2024-02-26T12:50:24.282Z,97922.46
2024-02-26T12:53:30.879Z,97924.09
2024-02-26T12:56:37.335Z,97922.14
2024-02-26T12:59:43.681Z,97919.02
2024-02-26T13:02:51.200Z,97922.84
2024-02-26T13:05:57.728Z,97925.52
2024-02-26T13:09:04.057Z,97927.46
2024-02-26T13:12:11.895Z,97932.11
2024-02-26T13:15:20.975Z,97933.72
2024-02-26T13:18:32.695Z,97931.25
2024-02-26T13:21:39.096Z,97929.85
2024-02-26T13:24:45.238Z,97927.97
2024-02-26T13:27:51.261Z,97935.83
2024-02-26T13:30:57.619Z,97938.60
2024-02-26T13:34:04.079Z,97932.05
2024-02-26T13:37:10.493Z,97929.55
2024-02-26T13:40:17.584Z,97934.90
2024-02-26T13:43:23.868Z,97936.01
2024-02-26T13:46:30.102Z,97936.06
2024-02-26T13:49:36.214Z,97943.20
2024-02-26T13:52:42.473Z,97941.34
2024-02-26T13:55:48.461Z,97946.12
2024-02-26T13:58:52.987Z,97949.42
2024-02-26T14:01:59.100Z,97953.02
2024-02-26T14:05:05.594Z,97955.48
2024-02-26T14:08:12.148Z,97959.17
2024-02-26T14:11:18.485Z,97964.34
2024-02-26T14:14:24.665Z,97959.70
2024-02-26T14:17:31.275Z,97952.78
2024-02-26T14:20:37.324Z,97953.23
2024-02-26T14:23:41.811Z,97951.48
2024-02-26T14:26:48.169Z,97952.94
2024-02-26T14:29:54.618Z,97954.11
2024-02-26T14:33:00.975Z,97956.07
2024-02-26T14:36:08.370Z,97959.54
2024-02-26T14:39:14.845Z,97953.52
2024-02-26T14:42:20.992Z,97956.61
2024-02-26T14:45:27.162Z,97956.63
2024-02-26T14:48:34.177Z,97962.28
2024-02-26T14:51:40.517Z,97965.68
2024-02-26T14:54:46.719Z,97966.67
2024-02-26T14:57:52.996Z,97972.48
2024-02-26T15:00:59.008Z,97969.80
2024-02-26T15:04:05.219Z,97973.58
2024-02-26T15:07:15.792Z,97976.10
2024-02-26T15:10:22.583Z,97977.58
2024-02-26T15:13:27.283Z,97975.38
2024-02-26T15:16:33.477Z,97975.39
2024-02-26T15:19:39.878Z,97980.83
2024-02-26T15:22:46.349Z,97984.31
2024-02-26T15:25:52.605Z,97984.10
2024-02-26T15:28:58.768Z,97981.75
2024-02-26T15:32:04.750Z,97981.73
2024-02-26T15:35:12.611Z,97986.28
2024-02-26T15:38:18.882Z,97986.77
2024-02-26T15:41:25.241Z,97989.69
2024-02-26T15:44:31.345Z,97994.00
2024-02-26T15:47:36.527Z,97996.00
2024-02-26T15:50:43.573Z,98000.09
2024-02-26T15:53:50.963Z,97996.84
2024-02-26T15:56:57.783Z,98005.15
2024-02-26T16:00:07.782Z,98011.74
2024-02-26T16:03:15.362Z,98015.55
2024-02-26T16:06:28.439Z,98019.30
2024-02-26T16:09:34.784Z,98017.59
2024-02-26T16:12:44.061Z,98016.92
2024-02-26T16:15:56.206Z,98017.89
2024-02-26T16:19:12.539Z,98019.72
2024-02-26T16:22:18.769Z,98025.46
2024-02-26T16:25:25.605Z,98033.60
2024-02-26T16:28:31.629Z,98028.01
2024-02-26T16:31:37.753Z,98029.74
2024-02-26T16:34:42.584Z,98033.66
2024-02-26T16:37:48.609Z,98032.90
2024-02-26T16:40:54.754Z,98030.55
2024-02-26T16:43:59.376Z,98026.98
2024-02-26T16:47:04.179Z,98028.69
2024-02-26T16:50:10.335Z,98030.17
2024-02-26T16:53:14.993Z,98027.75
2024-02-26T16:56:19.564Z,98034.55
2024-02-26T16:59:29.034Z,98041.23
2024-02-26T17:02:33.976Z,98046.23
2024-02-26T17:05:38.540Z,98050.19
2024-02-26T17:08:43.369Z,98056.14
2024-02-26T17:11:48.450Z,98059.53
2024-02-26T17:14:53.628Z,98060.80
2024-02-26T17:17:58.261Z,98065.11
2024-02-26T17:21:02.813Z,98067.79
2024-02-26T17:24:09.390Z,98072.53
2024-02-26T17:27:14.084Z,98072.33
2024-02-26T17:30:18.615Z,98073.11
2024-02-26T17:33:23.226Z,98075.29
2024-02-26T17:36:27.720Z,98075.84
2024-02-26T17:39:32.794Z,98078.23
2024-02-26T17:42:37.976Z,98078.27
2024-02-26T17:45:42.372Z,98077.68
2024-02-26T17:48:47.121Z,98083.67
2024-02-26T17:51:51.816Z,98085.02
2024-02-26T17:54:56.393Z,98087.61
2024-02-26T17:58:01.083Z,98088.94
2024-02-26T18:01:05.838Z,98088.48
2024-02-26T18:04:10.345Z,98083.35
2024-02-26T18:07:14.916Z,98083.55
2024-02-26T18:10:20.441Z,98083.80
2024-02-26T18:13:25.219Z,98079.30
2024-02-26T18:16:30.118Z,98079.09
2024-02-26T18:19:35.007Z,98080.96
2024-02-26T18:22:39.896Z,98082.74
2024-02-26T18:25:44.501Z,98081.19
2024-02-26T18:28:49.084Z,98082.34
2024-02-26T18:31:53.639Z,98088.94
2024-02-26T18:34:58.181Z,98093.61
2024-02-26T18:38:03.404Z,98097.64
2024-02-26T18:41:08.049Z,98099.56
2024-02-26T18:44:12.670Z,98102.35
2024-02-26T18:47:18.345Z,98102.77
2024-02-26T18:50:22.832Z,98112.22
2024-02-26T18:53:27.410Z,98119.45
2024-02-26T18:56:32.144Z,98121.83
2024-02-26T18:59:36.664Z,98129.13
2024-02-26T19:02:41.277Z,98128.98
2024-02-26T19:05:45.854Z,98129.20
2024-02-26T19:08:50.618Z,98129.13
2024-02-26T19:11:56.800Z,98135.79
2024-02-26T19:15:01.702Z,98140.56
2024-02-26T19:18:07.539Z,98144.34
2024-02-26T19:21:12.256Z,98147.58
2024-02-26T19:24:18.308Z,98150.58
2024-02-26T19:27:22.958Z,98155.02
2024-02-26T19:30:27.561Z,98163.52
2024-02-26T19:33:32.197Z,98166.83
2024-02-26T19:36:37.208Z,98169.17
2024-02-26T19:39:41.830Z,98176.55
2024-02-26T19:42:46.687Z,98180.77
2024-02-26T19:45:51.339Z,98183.56
2024-02-26T19:48:58.847Z,98188.13
2024-02-26T19:52:03.366Z,98189.02
2024-02-26T19:55:08.890Z,98191.70
2024-02-26T19:58:13.468Z,98197.02
2024-02-26T20:01:18.133Z,98200.27
2024-02-26T20:04:22.840Z,98201.27
2024-02-26T20:07:27.743Z,98202.52
2024-02-26T20:10:32.290Z,98203.70
2024-02-26T20:13:38.855Z,98202.86
2024-02-26T20:16:43.485Z,98203.88
2024-02-26T20:19:48.093Z,98205.10
2024-02-26T20:22:52.635Z,98206.30
2024-02-26T20:25:59.599Z,98205.35
2024-02-26T20:29:04.416Z,98210.56
2024-02-26T20:32:09.017Z,98212.38
2024-02-26T20:35:13.502Z,98220.17
2024-02-26T20:38:19.031Z,98223.39
2024-02-26T20:41:24.647Z,98223.34
2024-02-26T20:44:29.288Z,98216.88
2024-02-26T20:47:33.777Z,98223.86
2024-02-26T20:50:38.606Z,98229.33
2024-02-26T20:53:44.377Z,98231.71
2024-02-26T20:56:49.431Z,98228.20
2024-02-26T20:59:54.093Z,98232.21
2024-02-26T21:02:58.919Z,98235.26
2024-02-26T21:06:04.972Z,98238.35
2024-02-26T21:09:09.796Z,98233.88
2024-02-26T21:12:14.509Z,98233.65
2024-02-26T21:15:19.333Z,98241.48
2024-02-26T21:18:24.258Z,98246.98
2024-02-26T21:21:29.767Z,98249.98
2024-02-26T21:24:34.460Z,98251.86
2024-02-26T21:27:39.097Z,98260.25
2024-02-26T21:30:43.651Z,98266.48
2024-02-26T21:33:48.890Z,98268.42
2024-02-26T21:36:53.603Z,98271.33
2024-02-26T21:39:58.056Z,98274.11
2024-02-26T21:43:03.129Z,98272.39
2024-02-26T21:46:07.864Z,98281.00
2024-02-26T21:49:12.554Z,98288.23
2024-02-26T21:52:18.661Z,98292.52
2024-02-26T21:55:24.183Z,98292.76
2024-02-26T21:58:28.842Z,98296.94
2024-02-26T22:01:33.614Z,98301.45
2024-02-26T22:04:38.480Z,98309.45
2024-02-26T22:07:44.361Z,98311.96
2024-02-26T22:10:49.764Z,98314.73
2024-02-26T22:13:54.404Z,98317.63
2024-02-26T22:16:58.971Z,98315.91
2024-02-26T22:20:06.831Z,98321.12
2024-02-26T22:23:11.458Z,98320.11
2024-02-26T22:26:16.554Z,98312.71
2024-02-26T22:29:21.438Z,98313.84
2024-02-26T22:32:26.171Z,98310.36
2024-02-26T22:35:30.706Z,98312.52
2024-02-26T22:38:35.264Z,98314.59
2024-02-26T22:41:44.869Z,98318.73
2024-02-26T22:44:49.401Z,98321.27
2024-02-26T22:47:54.073Z,98317.52
2024-02-26T22:50:58.863Z,98313.39
2024-02-26T22:54:03.469Z,98312.14
2024-02-26T22:57:08.167Z,98308.58
2024-02-26T23:00:26.449Z,98318.85
2024-02-26T23:03:31.144Z,98328.71
2024-02-26T23:06:35.958Z,98333.05
2024-02-26T23:09:40.658Z,98334.38
2024-02-26T23:12:45.591Z,98336.20
2024-02-26T23:15:54.065Z,98339.38
2024-02-26T23:18:58.637Z,98341.13
2024-02-26T23:22:03.153Z,98346.63
2024-02-26T23:25:09.115Z,98352.34
2024-02-26T23:28:13.651Z,98355.40
2024-02-26T23:31:18.196Z,98363.88
2024-02-26T23:34:22.771Z,98364.12
2024-02-26T23:37:27.777Z,98363.43
2024-02-26T23:40:35.180Z,98363.44
2024-02-26T23:43:39.903Z,98361.13
2024-02-26T23:46:44.717Z,98360.56
2024-02-26T23:49:50.156Z,98357.92
2024-02-26T23:52:54.732Z,98364.45
2024-02-26T23:55:59.388Z,98368.15
2024-02-26T23:59:03.942Z,98364.58
